sensor_id;sensor_type;location;lat;lon;timestamp;P1;durP1;ratioP1;P2;durP2;ratioP2
15102;SDS011;7652;53.584;9.998;2023-02-13T00:00:28;14.23;;;8.93;;
15102;SDS011;7652;53.584;9.998;2023-02-13T00:03:31;12.57;;;9.20;;
15102;SDS011;7652;53.584;9.998;2023-02-13T00:06:35;13.90;;;9.10;;
15102;SDS011;7652;53.584;9.998;2023-02-13T00:09:38;12.43;;;8.80;;
15102;SDS011;7652;53.584;9.998;2023-02-13T00:12:41;11.00;;;9.10;;
15102;SDS011;7652;53.584;9.998;2023-02-13T00:15:53;12.53;;;9.10;;
15102;SDS011;7652;53.584;9.998;2023-02-13T00:18:57;12.57;;;8.73;;
15102;SDS011;7652;53.584;9.998;2023-02-13T00:22:00;13.87;;;9.43;;
15102;SDS011;7652;53.584;9.998;2023-02-13T00:25:03;13.73;;;9.30;;
15102;SDS011;7652;53.584;9.998;2023-02-13T00:28:07;13.10;;;9.83;;
15102;SDS011;7652;53.584;9.998;2023-02-13T00:31:12;14.73;;;9.43;;
15102;SDS011;7652;53.584;9.998;2023-02-13T00:34:17;15.23;;;9.73;;
15102;SDS011;7652;53.584;9.998;2023-02-13T00:37:20;13.77;;;9.53;;
15102;SDS011;7652;53.584;9.998;2023-02-13T00:40:23;12.00;;;9.20;;
15102;SDS011;7652;53.584;9.998;2023-02-13T00:43:26;13.17;;;9.90;;
15102;SDS011;7652;53.584;9.998;2023-02-13T00:46:30;13.03;;;9.80;;
15102;SDS011;7652;53.584;9.998;2023-02-13T00:49:33;12.40;;;8.50;;
15102;SDS011;7652;53.584;9.998;2023-02-13T00:52:36;11.30;;;9.10;;
15102;SDS011;7652;53.584;9.998;2023-02-13T00:55:39;14.30;;;9.77;;
15102;SDS011;7652;53.584;9.998;2023-02-13T00:58:42;11.20;;;9.20;;
15102;SDS011;7652;53.584;9.998;2023-02-13T01:01:47;14.30;;;10.07;;
15102;SDS011;7652;53.584;9.998;2023-02-13T01:04:50;13.77;;;9.13;;
15102;SDS011;7652;53.584;9.998;2023-02-13T01:07:53;14.93;;;9.30;;
15102;SDS011;7652;53.584;9.998;2023-02-13T01:10:56;14.53;;;9.57;;
15102;SDS011;7652;53.584;9.998;2023-02-13T01:14:00;13.97;;;9.80;;
15102;SDS011;7652;53.584;9.998;2023-02-13T01:17:04;12.93;;;9.50;;
15102;SDS011;7652;53.584;9.998;2023-02-13T01:20:08;14.93;;;9.20;;
15102;SDS011;7652;53.584;9.998;2023-02-13T01:23:13;14.07;;;9.43;;
15102;SDS011;7652;53.584;9.998;2023-02-13T01:26:17;14.67;;;9.67;;
15102;SDS011;7652;53.584;9.998;2023-02-13T01:29:21;14.87;;;9.47;;
15102;SDS011;7652;53.584;9.998;2023-02-13T01:32:26;12.30;;;9.13;;
15102;SDS011;7652;53.584;9.998;2023-02-13T01:35:29;14.10;;;10.23;;
15102;SDS011;7652;53.584;9.998;2023-02-13T01:38:32;11.40;;;9.13;;
15102;SDS011;7652;53.584;9.998;2023-02-13T01:41:35;14.57;;;9.40;;
15102;SDS011;7652;53.584;9.998;2023-02-13T01:44:48;14.70;;;9.50;;
15102;SDS011;7652;53.584;9.998;2023-02-13T01:47:55;15.27;;;9.37;;
15102;SDS011;7652;53.584;9.998;2023-02-13T01:51:02;12.43;;;9.00;;
15102;SDS011;7652;53.584;9.998;2023-02-13T01:54:09;12.40;;;9.17;;
15102;SDS011;7652;53.584;9.998;2023-02-13T01:57:17;13.77;;;9.07;;
15102;SDS011;7652;53.584;9.998;2023-02-13T02:00:22;13.20;;;9.40;;
15102;SDS011;7652;53.584;9.998;2023-02-13T02:03:28;15.97;;;9.23;;
15102;SDS011;7652;53.584;9.998;2023-02-13T02:06:38;12.37;;;9.10;;
15102;SDS011;7652;53.584;9.998;2023-02-13T02:09:43;12.50;;;8.33;;
15102;SDS011;7652;53.584;9.998;2023-02-13T02:12:48;14.60;;;8.90;;
15102;SDS011;7652;53.584;9.998;2023-02-13T02:15:54;12.17;;;8.60;;
15102;SDS011;7652;53.584;9.998;2023-02-13T02:18:59;11.83;;;8.37;;
15102;SDS011;7652;53.584;9.998;2023-02-13T02:29:44;12.67;;;8.00;;
15102;SDS011;7652;53.584;9.998;2023-02-13T02:33:08;13.23;;;8.60;;
15102;SDS011;7652;53.584;9.998;2023-02-13T02:36:34;12.23;;;8.40;;
15102;SDS011;7652;53.584;9.998;2023-02-13T02:39:49;13.90;;;8.43;;
15102;SDS011;7652;53.584;9.998;2023-02-13T02:43:08;10.60;;;7.60;;
15102;SDS011;7652;53.584;9.998;2023-02-13T02:46:20;10.47;;;7.90;;
15102;SDS011;7652;53.584;9.998;2023-02-13T02:49:30;10.07;;;7.17;;
15102;SDS011;7652;53.584;9.998;2023-02-13T02:53:00;10.47;;;7.67;;
15102;SDS011;7652;53.584;9.998;2023-02-13T02:56:10;9.07;;;7.27;;
15102;SDS011;7652;53.584;9.998;2023-02-13T02:59:19;9.80;;;7.33;;
15102;SDS011;7652;53.584;9.998;2023-02-13T03:02:41;11.10;;;7.50;;
15102;SDS011;7652;53.584;9.998;2023-02-13T03:06:03;10.37;;;7.17;;
15102;SDS011;7652;53.584;9.998;2023-02-13T03:09:15;11.20;;;7.13;;
15102;SDS011;7652;53.584;9.998;2023-02-13T03:12:42;8.67;;;7.03;;
15102;SDS011;7652;53.584;9.998;2023-02-13T03:16:09;10.53;;;7.37;;
15102;SDS011;7652;53.584;9.998;2023-02-13T03:19:37;9.77;;;7.50;;
15102;SDS011;7652;53.584;9.998;2023-02-13T03:23:09;11.03;;;7.37;;
15102;SDS011;7652;53.584;9.998;2023-02-13T03:26:20;12.17;;;7.07;;
15102;SDS011;7652;53.584;9.998;2023-02-13T03:29:48;11.13;;;7.27;;
15102;SDS011;7652;53.584;9.998;2023-02-13T03:36:44;10.70;;;7.57;;
15102;SDS011;7652;53.584;9.998;2023-02-13T03:40:11;9.40;;;7.07;;
15102;SDS011;7652;53.584;9.998;2023-02-13T03:43:17;10.20;;;7.53;;
15102;SDS011;7652;53.584;9.998;2023-02-13T03:46:21;10.67;;;7.13;;
15102;SDS011;7652;53.584;9.998;2023-02-13T03:49:27;12.40;;;7.60;;
15102;SDS011;7652;53.584;9.998;2023-02-13T03:52:51;9.57;;;7.50;;
15102;SDS011;7652;53.584;9.998;2023-02-13T03:55:58;9.97;;;7.23;;
15102;SDS011;7652;53.584;9.998;2023-02-13T03:59:23;9.30;;;7.20;;
15102;SDS011;7652;53.584;9.998;2023-02-13T04:02:31;10.10;;;7.27;;
15102;SDS011;7652;53.584;9.998;2023-02-13T04:05:37;11.30;;;7.13;;
15102;SDS011;7652;53.584;9.998;2023-02-13T04:08:43;9.47;;;7.23;;
15102;SDS011;7652;53.584;9.998;2023-02-13T04:11:50;9.33;;;7.17;;
15102;SDS011;7652;53.584;9.998;2023-02-13T04:14:58;10.43;;;7.63;;
15102;SDS011;7652;53.584;9.998;2023-02-13T04:18:06;9.97;;;7.20;;
15102;SDS011;7652;53.584;9.998;2023-02-13T04:21:12;9.20;;;6.57;;
15102;SDS011;7652;53.584;9.998;2023-02-13T04:24:15;9.97;;;7.53;;
15102;SDS011;7652;53.584;9.998;2023-02-13T04:27:19;9.73;;;6.37;;
15102;SDS011;7652;53.584;9.998;2023-02-13T04:30:22;9.53;;;6.80;;
15102;SDS011;7652;53.584;9.998;2023-02-13T04:33:25;9.57;;;6.77;;
15102;SDS011;7652;53.584;9.998;2023-02-13T04:36:28;8.10;;;6.80;;
15102;SDS011;7652;53.584;9.998;2023-02-13T04:39:31;9.37;;;6.30;;
15102;SDS011;7652;53.584;9.998;2023-02-13T04:42:36;9.50;;;7.37;;
15102;SDS011;7652;53.584;9.998;2023-02-13T04:45:39;10.03;;;7.23;;
15102;SDS011;7652;53.584;9.998;2023-02-13T04:48:42;9.23;;;7.00;;
15102;SDS011;7652;53.584;9.998;2023-02-13T04:51:45;9.47;;;6.87;;
15102;SDS011;7652;53.584;9.998;2023-02-13T04:54:48;9.33;;;6.90;;
15102;SDS011;7652;53.584;9.998;2023-02-13T04:57:53;10.73;;;7.40;;
15102;SDS011;7652;53.584;9.998;2023-02-13T05:00:57;12.87;;;7.37;;
15102;SDS011;7652;53.584;9.998;2023-02-13T05:04:00;15.33;;;8.87;;
15102;SDS011;7652;53.584;9.998;2023-02-13T05:07:03;11.97;;;8.50;;
15102;SDS011;7652;53.584;9.998;2023-02-13T05:10:07;15.60;;;8.77;;
15102;SDS011;7652;53.584;9.998;2023-02-13T05:13:12;11.60;;;7.47;;
15102;SDS011;7652;53.584;9.998;2023-02-13T05:16:17;9.30;;;6.97;;
15102;SDS011;7652;53.584;9.998;2023-02-13T05:19:19;8.10;;;6.60;;
15102;SDS011;7652;53.584;9.998;2023-02-13T05:22:22;9.03;;;7.30;;
15102;SDS011;7652;53.584;9.998;2023-02-13T05:25:43;12.90;;;8.00;;
15102;SDS011;7652;53.584;9.998;2023-02-13T05:28:48;8.57;;;6.33;;
15102;SDS011;7652;53.584;9.998;2023-02-13T05:32:08;9.30;;;7.37;;
15102;SDS011;7652;53.584;9.998;2023-02-13T05:35:11;10.53;;;7.60;;
15102;SDS011;7652;53.584;9.998;2023-02-13T05:38:14;9.87;;;7.87;;
15102;SDS011;7652;53.584;9.998;2023-02-13T05:41:17;11.00;;;7.30;;
15102;SDS011;7652;53.584;9.998;2023-02-13T05:44:22;9.13;;;6.87;;
15102;SDS011;7652;53.584;9.998;2023-02-13T05:47:24;10.20;;;7.17;;
15102;SDS011;7652;53.584;9.998;2023-02-13T05:50:27;10.83;;;7.00;;
15102;SDS011;7652;53.584;9.998;2023-02-13T05:53:30;11.67;;;7.90;;
15102;SDS011;7652;53.584;9.998;2023-02-13T05:56:35;10.10;;;6.90;;
15102;SDS011;7652;53.584;9.998;2023-02-13T05:59:40;9.70;;;7.03;;
15102;SDS011;7652;53.584;9.998;2023-02-13T06:02:42;9.93;;;6.93;;
15102;SDS011;7652;53.584;9.998;2023-02-13T06:05:46;11.70;;;7.97;;
15102;SDS011;7652;53.584;9.998;2023-02-13T06:08:49;7.93;;;6.60;;
15102;SDS011;7652;53.584;9.998;2023-02-13T06:11:52;11.90;;;8.70;;
15102;SDS011;7652;53.584;9.998;2023-02-13T06:14:56;9.80;;;7.43;;
15102;SDS011;7652;53.584;9.998;2023-02-13T06:17:59;12.47;;;7.73;;
15102;SDS011;7652;53.584;9.998;2023-02-13T06:21:02;9.37;;;7.57;;
15102;SDS011;7652;53.584;9.998;2023-02-13T06:24:06;12.37;;;7.70;;
15102;SDS011;7652;53.584;9.998;2023-02-13T06:27:09;12.53;;;8.97;;
15102;SDS011;7652;53.584;9.998;2023-02-13T06:30:15;9.97;;;7.50;;
15102;SDS011;7652;53.584;9.998;2023-02-13T06:33:19;11.20;;;8.20;;
15102;SDS011;7652;53.584;9.998;2023-02-13T06:36:22;13.70;;;8.63;;
15102;SDS011;7652;53.584;9.998;2023-02-13T06:39:25;11.53;;;8.27;;
15102;SDS011;7652;53.584;9.998;2023-02-13T06:42:28;11.90;;;8.17;;
15102;SDS011;7652;53.584;9.998;2023-02-13T06:45:32;11.30;;;8.50;;
15102;SDS011;7652;53.584;9.998;2023-02-13T06:48:35;12.53;;;8.00;;
15102;SDS011;7652;53.584;9.998;2023-02-13T06:51:38;10.53;;;7.97;;
15102;SDS011;7652;53.584;9.998;2023-02-13T06:54:41;11.27;;;8.27;;
15102;SDS011;7652;53.584;9.998;2023-02-13T06:57:48;14.07;;;8.43;;
15102;SDS011;7652;53.584;9.998;2023-02-13T07:00:52;11.27;;;7.60;;
15102;SDS011;7652;53.584;9.998;2023-02-13T07:03:56;12.27;;;7.73;;
15102;SDS011;7652;53.584;9.998;2023-02-13T07:06:59;11.03;;;8.30;;
15102;SDS011;7652;53.584;9.998;2023-02-13T07:10:03;10.97;;;8.37;;
15102;SDS011;7652;53.584;9.998;2023-02-13T07:13:07;13.40;;;8.93;;
15102;SDS011;7652;53.584;9.998;2023-02-13T07:16:12;11.20;;;7.80;;
15102;SDS011;7652;53.584;9.998;2023-02-13T07:19:15;12.20;;;8.20;;
15102;SDS011;7652;53.584;9.998;2023-02-13T07:22:18;12.47;;;9.20;;
15102;SDS011;7652;53.584;9.998;2023-02-13T07:25:21;14.50;;;8.57;;
15102;SDS011;7652;53.584;9.998;2023-02-13T07:28:24;11.47;;;8.47;;
15102;SDS011;7652;53.584;9.998;2023-02-13T07:31:29;12.53;;;8.37;;
15102;SDS011;7652;53.584;9.998;2023-02-13T07:34:32;12.43;;;8.50;;
15102;SDS011;7652;53.584;9.998;2023-02-13T07:37:35;13.70;;;9.43;;
15102;SDS011;7652;53.584;9.998;2023-02-13T07:40:38;11.07;;;8.10;;
15102;SDS011;7652;53.584;9.998;2023-02-13T07:43:41;10.60;;;7.83;;
15102;SDS011;7652;53.584;9.998;2023-02-13T07:46:45;11.97;;;8.13;;
15102;SDS011;7652;53.584;9.998;2023-02-13T07:49:48;14.87;;;9.57;;
15102;SDS011;7652;53.584;9.998;2023-02-13T07:52:52;11.13;;;8.60;;
15102;SDS011;7652;53.584;9.998;2023-02-13T07:55:55;12.97;;;9.20;;
15102;SDS011;7652;53.584;9.998;2023-02-13T07:58:59;13.47;;;8.33;;
15102;SDS011;7652;53.584;9.998;2023-02-13T08:02:03;11.80;;;8.70;;
15102;SDS011;7652;53.584;9.998;2023-02-13T08:05:06;11.87;;;8.53;;
15102;SDS011;7652;53.584;9.998;2023-02-13T08:08:10;12.30;;;8.83;;
15102;SDS011;7652;53.584;9.998;2023-02-13T08:11:20;12.63;;;8.50;;
15102;SDS011;7652;53.584;9.998;2023-02-13T08:14:44;11.40;;;8.53;;
15102;SDS011;7652;53.584;9.998;2023-02-13T08:17:48;12.70;;;8.70;;
15102;SDS011;7652;53.584;9.998;2023-02-13T08:20:51;11.60;;;9.30;;
15102;SDS011;7652;53.584;9.998;2023-02-13T08:23:54;11.10;;;8.60;;
15102;SDS011;7652;53.584;9.998;2023-02-13T08:26:57;10.47;;;8.10;;
15102;SDS011;7652;53.584;9.998;2023-02-13T08:30:00;11.97;;;8.50;;
15102;SDS011;7652;53.584;9.998;2023-02-13T08:33:05;11.73;;;8.53;;
15102;SDS011;7652;53.584;9.998;2023-02-13T08:36:08;15.37;;;8.47;;
15102;SDS011;7652;53.584;9.998;2023-02-13T08:39:11;12.00;;;8.50;;
15102;SDS011;7652;53.584;9.998;2023-02-13T08:42:14;11.67;;;8.37;;
15102;SDS011;7652;53.584;9.998;2023-02-13T08:45:17;12.63;;;8.90;;
15102;SDS011;7652;53.584;9.998;2023-02-13T08:48:22;13.13;;;8.20;;
15102;SDS011;7652;53.584;9.998;2023-02-13T08:51:25;12.13;;;8.47;;
15102;SDS011;7652;53.584;9.998;2023-02-13T08:54:28;13.50;;;9.53;;
15102;SDS011;7652;53.584;9.998;2023-02-13T08:57:31;10.70;;;8.40;;
15102;SDS011;7652;53.584;9.998;2023-02-13T09:00:34;11.17;;;7.93;;
15102;SDS011;7652;53.584;9.998;2023-02-13T09:03:38;13.00;;;9.10;;
15102;SDS011;7652;53.584;9.998;2023-02-13T09:06:41;12.67;;;9.10;;
15102;SDS011;7652;53.584;9.998;2023-02-13T09:09:44;10.67;;;8.30;;
15102;SDS011;7652;53.584;9.998;2023-02-13T09:12:50;11.03;;;8.33;;
15102;SDS011;7652;53.584;9.998;2023-02-13T09:15:56;17.57;;;9.37;;
15102;SDS011;7652;53.584;9.998;2023-02-13T09:19:01;12.77;;;8.47;;
15102;SDS011;7652;53.584;9.998;2023-02-13T09:22:05;12.37;;;8.37;;
15102;SDS011;7652;53.584;9.998;2023-02-13T09:25:08;12.10;;;8.13;;
15102;SDS011;7652;53.584;9.998;2023-02-13T09:28:11;10.87;;;8.10;;
15102;SDS011;7652;53.584;9.998;2023-02-13T09:31:15;11.20;;;7.43;;
15102;SDS011;7652;53.584;9.998;2023-02-13T09:34:20;11.10;;;8.47;;
15102;SDS011;7652;53.584;9.998;2023-02-13T09:37:23;13.07;;;8.87;;
15102;SDS011;7652;53.584;9.998;2023-02-13T09:40:28;11.53;;;8.17;;
15102;SDS011;7652;53.584;9.998;2023-02-13T09:43:40;10.17;;;7.70;;
15102;SDS011;7652;53.584;9.998;2023-02-13T09:46:47;13.77;;;8.17;;
15102;SDS011;7652;53.584;9.998;2023-02-13T09:49:52;11.17;;;8.10;;
15102;SDS011;7652;53.584;9.998;2023-02-13T09:52:58;11.53;;;8.17;;
15102;SDS011;7652;53.584;9.998;2023-02-13T09:56:04;11.20;;;7.87;;
15102;SDS011;7652;53.584;9.998;2023-02-13T09:59:14;11.57;;;8.27;;
15102;SDS011;7652;53.584;9.998;2023-02-13T10:02:34;14.00;;;8.10;;
15102;SDS011;7652;53.584;9.998;2023-02-13T10:05:50;10.07;;;8.13;;
15102;SDS011;7652;53.584;9.998;2023-02-13T10:09:03;12.13;;;8.37;;
15102;SDS011;7652;53.584;9.998;2023-02-13T10:12:12;12.87;;;8.47;;
15102;SDS011;7652;53.584;9.998;2023-02-13T10:15:27;11.77;;;7.90;;
15102;SDS011;7652;53.584;9.998;2023-02-13T10:18:42;11.63;;;8.20;;
15102;SDS011;7652;53.584;9.998;2023-02-13T10:21:51;10.70;;;7.60;;
15102;SDS011;7652;53.584;9.998;2023-02-13T10:25:00;11.47;;;7.93;;
15102;SDS011;7652;53.584;9.998;2023-02-13T10:28:08;11.67;;;8.27;;
15102;SDS011;7652;53.584;9.998;2023-02-13T10:31:16;12.63;;;8.47;;
15102;SDS011;7652;53.584;9.998;2023-02-13T10:34:24;13.30;;;8.40;;
15102;SDS011;7652;53.584;9.998;2023-02-13T10:37:29;11.10;;;8.40;;
15102;SDS011;7652;53.584;9.998;2023-02-13T10:40:35;13.10;;;8.90;;
15102;SDS011;7652;53.584;9.998;2023-02-13T10:43:45;12.27;;;8.37;;
15102;SDS011;7652;53.584;9.998;2023-02-13T10:47:06;12.23;;;8.00;;
15102;SDS011;7652;53.584;9.998;2023-02-13T10:50:20;10.67;;;8.17;;
15102;SDS011;7652;53.584;9.998;2023-02-13T10:53:31;10.07;;;7.43;;
15102;SDS011;7652;53.584;9.998;2023-02-13T10:56:44;10.30;;;7.83;;
15102;SDS011;7652;53.584;9.998;2023-02-13T10:59:57;12.77;;;7.97;;
15102;SDS011;7652;53.584;9.998;2023-02-13T11:03:09;12.47;;;8.10;;
15102;SDS011;7652;53.584;9.998;2023-02-13T11:06:20;11.97;;;8.13;;
15102;SDS011;7652;53.584;9.998;2023-02-13T11:09:24;12.83;;;7.77;;
15102;SDS011;7652;53.584;9.998;2023-02-13T11:12:29;14.07;;;9.40;;
15102;SDS011;7652;53.584;9.998;2023-02-13T11:15:32;16.63;;;9.20;;
15102;SDS011;7652;53.584;9.998;2023-02-13T11:18:38;11.70;;;8.83;;
15102;SDS011;7652;53.584;9.998;2023-02-13T11:21:44;13.20;;;8.83;;
15102;SDS011;7652;53.584;9.998;2023-02-13T11:24:51;16.47;;;9.03;;
15102;SDS011;7652;53.584;9.998;2023-02-13T11:28:04;12.73;;;8.93;;
15102;SDS011;7652;53.584;9.998;2023-02-13T11:31:20;14.47;;;9.20;;
15102;SDS011;7652;53.584;9.998;2023-02-13T11:34:26;16.53;;;9.37;;
15102;SDS011;7652;53.584;9.998;2023-02-13T11:37:31;15.33;;;10.03;;
15102;SDS011;7652;53.584;9.998;2023-02-13T11:40:35;16.30;;;10.20;;
15102;SDS011;7652;53.584;9.998;2023-02-13T11:43:42;17.57;;;10.40;;
15102;SDS011;7652;53.584;9.998;2023-02-13T11:46:49;16.30;;;9.40;;
15102;SDS011;7652;53.584;9.998;2023-02-13T11:49:53;14.57;;;10.50;;
15102;SDS011;7652;53.584;9.998;2023-02-13T11:52:57;14.87;;;10.20;;
15102;SDS011;7652;53.584;9.998;2023-02-13T11:56:06;15.50;;;10.10;;
15102;SDS011;7652;53.584;9.998;2023-02-13T11:59:10;13.47;;;9.87;;
15102;SDS011;7652;53.584;9.998;2023-02-13T12:02:16;15.17;;;10.23;;
15102;SDS011;7652;53.584;9.998;2023-02-13T12:05:22;15.97;;;10.30;;
15102;SDS011;7652;53.584;9.998;2023-02-13T12:08:25;15.90;;;10.20;;
15102;SDS011;7652;53.584;9.998;2023-02-13T12:11:33;16.07;;;11.33;;
15102;SDS011;7652;53.584;9.998;2023-02-13T12:14:41;16.87;;;11.50;;
15102;SDS011;7652;53.584;9.998;2023-02-13T12:17:47;21.83;;;12.80;;
15102;SDS011;7652;53.584;9.998;2023-02-13T12:20:56;18.87;;;11.80;;
15102;SDS011;7652;53.584;9.998;2023-02-13T12:24:08;15.40;;;11.33;;
15102;SDS011;7652;53.584;9.998;2023-02-13T12:27:24;16.53;;;11.80;;
15102;SDS011;7652;53.584;9.998;2023-02-13T12:30:47;17.47;;;11.80;;
15102;SDS011;7652;53.584;9.998;2023-02-13T12:38:10;21.80;;;13.67;;
15102;SDS011;7652;53.584;9.998;2023-02-13T12:41:24;18.47;;;12.70;;
15102;SDS011;7652;53.584;9.998;2023-02-13T12:44:52;19.33;;;12.63;;
15102;SDS011;7652;53.584;9.998;2023-02-13T12:48:06;20.53;;;13.03;;
15102;SDS011;7652;53.584;9.998;2023-02-13T12:51:24;18.43;;;12.53;;
15102;SDS011;7652;53.584;9.998;2023-02-13T12:54:42;20.83;;;11.93;;
15102;SDS011;7652;53.584;9.998;2023-02-13T12:58:01;18.37;;;12.40;;
15102;SDS011;7652;53.584;9.998;2023-02-13T13:01:22;21.17;;;13.30;;
15102;SDS011;7652;53.584;9.998;2023-02-13T13:04:38;18.10;;;12.27;;
15102;SDS011;7652;53.584;9.998;2023-02-13T13:07:52;20.77;;;12.23;;
15102;SDS011;7652;53.584;9.998;2023-02-13T13:11:14;18.33;;;12.40;;
15102;SDS011;7652;53.584;9.998;2023-02-13T13:14:30;18.57;;;11.90;;
15102;SDS011;7652;53.584;9.998;2023-02-13T13:17:44;19.00;;;11.93;;
15102;SDS011;7652;53.584;9.998;2023-02-13T13:20:58;22.03;;;13.60;;
15102;SDS011;7652;53.584;9.998;2023-02-13T13:24:17;17.33;;;11.70;;
15102;SDS011;7652;53.584;9.998;2023-02-13T13:27:36;20.63;;;12.97;;
15102;SDS011;7652;53.584;9.998;2023-02-13T13:30:44;18.67;;;12.43;;
15102;SDS011;7652;53.584;9.998;2023-02-13T13:33:50;21.27;;;12.60;;
15102;SDS011;7652;53.584;9.998;2023-02-13T13:36:55;19.33;;;12.07;;
15102;SDS011;7652;53.584;9.998;2023-02-13T13:40:05;19.83;;;12.77;;
15102;SDS011;7652;53.584;9.998;2023-02-13T13:43:25;21.73;;;12.53;;
15102;SDS011;7652;53.584;9.998;2023-02-13T13:46:37;19.57;;;12.33;;
15102;SDS011;7652;53.584;9.998;2023-02-13T13:49:51;21.20;;;12.43;;
15102;SDS011;7652;53.584;9.998;2023-02-13T13:53:06;20.33;;;12.63;;
15102;SDS011;7652;53.584;9.998;2023-02-13T13:56:11;17.57;;;11.90;;
15102;SDS011;7652;53.584;9.998;2023-02-13T13:59:15;18.13;;;12.67;;
15102;SDS011;7652;53.584;9.998;2023-02-13T14:02:25;17.90;;;11.23;;
15102;SDS011;7652;53.584;9.998;2023-02-13T14:05:59;18.90;;;12.40;;
15102;SDS011;7652;53.584;9.998;2023-02-13T14:09:06;24.37;;;13.00;;
15102;SDS011;7652;53.584;9.998;2023-02-13T14:12:36;20.57;;;13.43;;
15102;SDS011;7652;53.584;9.998;2023-02-13T14:15:49;20.80;;;13.10;;
15102;SDS011;7652;53.584;9.998;2023-02-13T14:18:55;20.50;;;12.67;;
15102;SDS011;7652;53.584;9.998;2023-02-13T14:25:38;24.20;;;13.47;;
15102;SDS011;7652;53.584;9.998;2023-02-13T14:28:41;20.07;;;13.13;;
15102;SDS011;7652;53.584;9.998;2023-02-13T14:31:58;20.13;;;12.70;;
15102;SDS011;7652;53.584;9.998;2023-02-13T14:35:06;21.83;;;13.03;;
15102;SDS011;7652;53.584;9.998;2023-02-13T14:38:23;20.90;;;12.67;;
15102;SDS011;7652;53.584;9.998;2023-02-13T14:41:43;22.37;;;13.70;;
15102;SDS011;7652;53.584;9.998;2023-02-13T14:44:57;24.17;;;13.47;;
15102;SDS011;7652;53.584;9.998;2023-02-13T14:48:04;21.40;;;13.63;;
15102;SDS011;7652;53.584;9.998;2023-02-13T14:51:14;22.30;;;14.43;;
15102;SDS011;7652;53.584;9.998;2023-02-13T14:54:31;21.13;;;13.13;;
15102;SDS011;7652;53.584;9.998;2023-02-13T14:57:36;23.77;;;14.47;;
15102;SDS011;7652;53.584;9.998;2023-02-13T15:00:45;20.37;;;13.43;;
15102;SDS011;7652;53.584;9.998;2023-02-13T15:03:56;21.17;;;14.07;;
15102;SDS011;7652;53.584;9.998;2023-02-13T15:07:06;22.77;;;13.97;;
15102;SDS011;7652;53.584;9.998;2023-02-13T15:10:30;22.70;;;14.47;;
15102;SDS011;7652;53.584;9.998;2023-02-13T15:13:41;22.67;;;14.00;;
15102;SDS011;7652;53.584;9.998;2023-02-13T15:16:44;23.73;;;13.77;;
15102;SDS011;7652;53.584;9.998;2023-02-13T15:19:50;23.30;;;14.30;;
15102;SDS011;7652;53.584;9.998;2023-02-13T15:22:54;21.40;;;13.60;;
15102;SDS011;7652;53.584;9.998;2023-02-13T15:26:00;22.70;;;14.63;;
15102;SDS011;7652;53.584;9.998;2023-02-13T15:29:11;21.40;;;13.63;;
15102;SDS011;7652;53.584;9.998;2023-02-13T15:32:28;20.27;;;12.93;;
15102;SDS011;7652;53.584;9.998;2023-02-13T15:35:34;20.53;;;12.83;;
15102;SDS011;7652;53.584;9.998;2023-02-13T15:38:37;22.57;;;13.60;;
15102;SDS011;7652;53.584;9.998;2023-02-13T15:41:42;21.37;;;12.83;;
15102;SDS011;7652;53.584;9.998;2023-02-13T15:44:47;20.33;;;12.77;;
15102;SDS011;7652;53.584;9.998;2023-02-13T15:47:53;18.57;;;12.80;;
15102;SDS011;7652;53.584;9.998;2023-02-13T15:50:57;22.43;;;14.17;;
15102;SDS011;7652;53.584;9.998;2023-02-13T15:54:01;20.33;;;12.47;;
15102;SDS011;7652;53.584;9.998;2023-02-13T15:57:08;20.00;;;13.57;;
15102;SDS011;7652;53.584;9.998;2023-02-13T16:00:16;22.03;;;13.60;;
15102;SDS011;7652;53.584;9.998;2023-02-13T16:03:24;21.43;;;13.10;;
15102;SDS011;7652;53.584;9.998;2023-02-13T16:06:29;22.10;;;13.23;;
15102;SDS011;7652;53.584;9.998;2023-02-13T16:09:33;19.73;;;12.93;;
15102;SDS011;7652;53.584;9.998;2023-02-13T16:12:38;20.50;;;13.07;;
15102;SDS011;7652;53.584;9.998;2023-02-13T16:15:47;20.73;;;13.27;;
15102;SDS011;7652;53.584;9.998;2023-02-13T16:18:50;21.13;;;12.20;;
15102;SDS011;7652;53.584;9.998;2023-02-13T16:21:55;21.57;;;12.37;;
15102;SDS011;7652;53.584;9.998;2023-02-13T16:25:08;19.93;;;11.50;;
15102;SDS011;7652;53.584;9.998;2023-02-13T16:28:24;17.43;;;11.17;;
15102;SDS011;7652;53.584;9.998;2023-02-13T16:31:32;18.03;;;11.27;;
15102;SDS011;7652;53.584;9.998;2023-02-13T16:34:35;20.20;;;11.13;;
15102;SDS011;7652;53.584;9.998;2023-02-13T16:37:46;17.07;;;11.27;;
15102;SDS011;7652;53.584;9.998;2023-02-13T16:40:52;21.50;;;11.13;;
15102;SDS011;7652;53.584;9.998;2023-02-13T16:44:01;19.97;;;12.40;;
15102;SDS011;7652;53.584;9.998;2023-02-13T16:47:11;18.10;;;11.17;;
15102;SDS011;7652;53.584;9.998;2023-02-13T16:50:23;18.13;;;11.40;;
15102;SDS011;7652;53.584;9.998;2023-02-13T16:53:26;17.87;;;11.70;;
15102;SDS011;7652;53.584;9.998;2023-02-13T16:56:35;19.60;;;10.93;;
15102;SDS011;7652;53.584;9.998;2023-02-13T16:59:47;18.23;;;10.70;;
15102;SDS011;7652;53.584;9.998;2023-02-13T17:02:53;18.03;;;11.33;;
15102;SDS011;7652;53.584;9.998;2023-02-13T17:05:57;18.37;;;12.03;;
15102;SDS011;7652;53.584;9.998;2023-02-13T17:09:02;18.43;;;11.60;;
15102;SDS011;7652;53.584;9.998;2023-02-13T17:12:10;20.20;;;11.30;;
15102;SDS011;7652;53.584;9.998;2023-02-13T17:15:18;19.33;;;12.30;;
15102;SDS011;7652;53.584;9.998;2023-02-13T17:18:23;20.30;;;12.43;;
15102;SDS011;7652;53.584;9.998;2023-02-13T17:21:25;19.33;;;12.60;;
15102;SDS011;7652;53.584;9.998;2023-02-13T17:24:28;18.13;;;11.67;;
15102;SDS011;7652;53.584;9.998;2023-02-13T17:27:32;19.13;;;11.80;;
15102;SDS011;7652;53.584;9.998;2023-02-13T17:30:36;16.23;;;11.07;;
15102;SDS011;7652;53.584;9.998;2023-02-13T17:33:39;18.40;;;11.67;;
15102;SDS011;7652;53.584;9.998;2023-02-13T17:36:43;18.83;;;11.40;;
15102;SDS011;7652;53.584;9.998;2023-02-13T17:39:46;18.73;;;11.50;;
15102;SDS011;7652;53.584;9.998;2023-02-13T17:42:50;18.13;;;11.40;;
15102;SDS011;7652;53.584;9.998;2023-02-13T17:45:56;19.40;;;12.57;;
15102;SDS011;7652;53.584;9.998;2023-02-13T17:49:01;19.77;;;11.93;;
15102;SDS011;7652;53.584;9.998;2023-02-13T17:52:05;18.50;;;11.13;;
15102;SDS011;7652;53.584;9.998;2023-02-13T17:55:13;21.23;;;12.43;;
15102;SDS011;7652;53.584;9.998;2023-02-13T17:58:18;17.23;;;11.93;;
15102;SDS011;7652;53.584;9.998;2023-02-13T18:01:22;20.70;;;12.30;;
15102;SDS011;7652;53.584;9.998;2023-02-13T18:04:25;17.30;;;11.07;;
15102;SDS011;7652;53.584;9.998;2023-02-13T18:07:28;19.57;;;12.83;;
15102;SDS011;7652;53.584;9.998;2023-02-13T18:10:32;22.23;;;12.93;;
15102;SDS011;7652;53.584;9.998;2023-02-13T18:13:37;17.53;;;11.47;;
15102;SDS011;7652;53.584;9.998;2023-02-13T18:16:45;18.33;;;12.43;;
15102;SDS011;7652;53.584;9.998;2023-02-13T18:19:48;18.33;;;12.33;;
15102;SDS011;7652;53.584;9.998;2023-02-13T18:22:52;19.17;;;12.83;;
15102;SDS011;7652;53.584;9.998;2023-02-13T18:26:02;18.63;;;11.90;;
15102;SDS011;7652;53.584;9.998;2023-02-13T18:29:06;23.37;;;13.37;;
15102;SDS011;7652;53.584;9.998;2023-02-13T18:32:11;20.67;;;12.17;;
15102;SDS011;7652;53.584;9.998;2023-02-13T18:35:14;21.43;;;12.53;;
15102;SDS011;7652;53.584;9.998;2023-02-13T18:38:17;22.20;;;13.00;;
15102;SDS011;7652;53.584;9.998;2023-02-13T18:41:20;24.30;;;13.70;;
15102;SDS011;7652;53.584;9.998;2023-02-13T18:44:23;22.53;;;13.87;;
15102;SDS011;7652;53.584;9.998;2023-02-13T18:47:30;22.43;;;13.37;;
15102;SDS011;7652;53.584;9.998;2023-02-13T18:50:33;26.07;;;14.07;;
15102;SDS011;7652;53.584;9.998;2023-02-13T18:53:39;22.80;;;12.60;;
15102;SDS011;7652;53.584;9.998;2023-02-13T18:56:42;22.97;;;14.10;;
15102;SDS011;7652;53.584;9.998;2023-02-13T18:59:45;24.13;;;13.97;;
15102;SDS011;7652;53.584;9.998;2023-02-13T19:02:49;21.50;;;13.43;;